sensor_id;sensor_type;location;lat;lon;timestamp;temperature;humidity
12811;DHT22;6470;47.654;7.896;2023-07-16T00:00:11;18.80;99.90
12811;DHT22;6470;47.654;7.896;2023-07-16T00:05:04;18.10;99.90
12811;DHT22;6470;47.654;7.896;2023-07-16T00:07:31;18.20;99.90
12811;DHT22;6470;47.654;7.896;2023-07-16T00:09:57;17.80;99.90
12811;DHT22;6470;47.654;7.896;2023-07-16T00:12:22;18.50;99.90
12811;DHT22;6470;47.654;7.896;2023-07-16T00:14:48;17.60;99.90
12811;DHT22;6470;47.654;7.896;2023-07-16T00:17:14;18.20;99.90
12811;DHT22;6470;47.654;7.896;2023-07-16T00:22:06;16.90;99.90
12811;DHT22;6470;47.654;7.896;2023-07-16T00:24:31;17.80;99.90
12811;DHT22;6470;47.654;7.896;2023-07-16T00:26:57;18.50;99.90
12811;DHT22;6470;47.654;7.896;2023-07-16T00:29:23;18.40;99.90
12811;DHT22;6470;47.654;7.896;2023-07-16T00:31:49;17.50;99.90
12811;DHT22;6470;47.654;7.896;2023-07-16T00:34:15;17.90;99.90
12811;DHT22;6470;47.654;7.896;2023-07-16T00:36:40;18.50;99.90
12811;DHT22;6470;47.654;7.896;2023-07-16T00:39:06;18.10;99.90
12811;DHT22;6470;47.654;7.896;2023-07-16T00:41:32;17.80;99.90
12811;DHT22;6470;47.654;7.896;2023-07-16T00:43:58;17.90;99.90
12811;DHT22;6470;47.654;7.896;2023-07-16T00:46:24;17.20;99.90
12811;DHT22;6470;47.654;7.896;2023-07-16T00:48:50;17.10;99.90
12811;DHT22;6470;47.654;7.896;2023-07-16T00:51:16;17.00;99.90
12811;DHT22;6470;47.654;7.896;2023-07-16T00:53:43;17.40;99.90
12811;DHT22;6470;47.654;7.896;2023-07-16T00:56:10;18.20;99.90
12811;DHT22;6470;47.654;7.896;2023-07-16T00:58:36;18.00;99.90
12811;DHT22;6470;47.654;7.896;2023-07-16T01:09:27;17.20;99.90
12811;DHT22;6470;47.654;7.896;2023-07-16T01:11:29;17.70;99.90
12811;DHT22;6470;47.654;7.896;2023-07-16T01:13:56;18.00;99.90
12811;DHT22;6470;47.654;7.896;2023-07-16T01:16:24;17.50;99.90
12811;DHT22;6470;47.654;7.896;2023-07-16T01:18:50;14.70;99.90
12811;DHT22;6470;47.654;7.896;2023-07-16T01:21:19;16.60;99.90
12811;DHT22;6470;47.654;7.896;2023-07-16T01:29:31;16.90;99.90
12811;DHT22;6470;47.654;7.896;2023-07-16T01:32:00;17.40;99.90
12811;DHT22;6470;47.654;7.896;2023-07-16T01:34:28;14.70;99.90
12811;DHT22;6470;47.654;7.896;2023-07-16T01:36:55;17.20;99.90
12811;DHT22;6470;47.654;7.896;2023-07-16T01:39:21;17.40;99.90
12811;DHT22;6470;47.654;7.896;2023-07-16T01:41:47;17.80;99.90
12811;DHT22;6470;47.654;7.896;2023-07-16T01:44:13;17.60;99.90
12811;DHT22;6470;47.654;7.896;2023-07-16T01:46:39;17.80;99.90
12811;DHT22;6470;47.654;7.896;2023-07-16T01:49:04;17.00;99.90
12811;DHT22;6470;47.654;7.896;2023-07-16T01:51:30;16.50;99.90
12811;DHT22;6470;47.654;7.896;2023-07-16T01:53:56;16.80;99.90
12811;DHT22;6470;47.654;7.896;2023-07-16T01:56:21;17.40;99.90
12811;DHT22;6470;47.654;7.896;2023-07-16T02:06:05;16.60;99.90
12811;DHT22;6470;47.654;7.896;2023-07-16T02:08:31;17.20;99.90
12811;DHT22;6470;47.654;7.896;2023-07-16T02:10:56;16.70;99.90
12811;DHT22;6470;47.654;7.896;2023-07-16T02:13:22;16.60;99.90
12811;DHT22;6470;47.654;7.896;2023-07-16T02:15:47;17.40;99.90
12811;DHT22;6470;47.654;7.896;2023-07-16T02:18:13;17.00;99.90
12811;DHT22;6470;47.654;7.896;2023-07-16T02:20:39;17.30;99.90
12811;DHT22;6470;47.654;7.896;2023-07-16T02:23:05;17.00;99.90
12811;DHT22;6470;47.654;7.896;2023-07-16T02:25:32;17.10;99.90
12811;DHT22;6470;47.654;7.896;2023-07-16T02:27:58;13.90;99.90
12811;DHT22;6470;47.654;7.896;2023-07-16T02:30:23;16.80;99.90
12811;DHT22;6470;47.654;7.896;2023-07-16T02:32:49;16.00;99.90
12811;DHT22;6470;47.654;7.896;2023-07-16T02:35:14;16.80;99.90
12811;DHT22;6470;47.654;7.896;2023-07-16T02:37:40;16.20;99.90
12811;DHT22;6470;47.654;7.896;2023-07-16T02:40:06;16.60;99.90
12811;DHT22;6470;47.654;7.896;2023-07-16T02:42:32;16.20;99.90
12811;DHT22;6470;47.654;7.896;2023-07-16T02:44:58;16.10;99.90
12811;DHT22;6470;47.654;7.896;2023-07-16T02:47:24;16.20;99.90
12811;DHT22;6470;47.654;7.896;2023-07-16T02:49:52;17.00;99.90
12811;DHT22;6470;47.654;7.896;2023-07-16T02:54:44;15.80;99.90
12811;DHT22;6470;47.654;7.896;2023-07-16T02:59:36;16.10;99.90
12811;DHT22;6470;47.654;7.896;2023-07-16T03:02:02;16.90;99.90
12811;DHT22;6470;47.654;7.896;2023-07-16T03:04:27;17.20;99.90
12811;DHT22;6470;47.654;7.896;2023-07-16T03:09:19;15.90;99.90
12811;DHT22;6470;47.654;7.896;2023-07-16T03:11:44;16.20;99.90
12811;DHT22;6470;47.654;7.896;2023-07-16T03:14:10;16.30;99.90
12811;DHT22;6470;47.654;7.896;2023-07-16T03:19:02;15.70;99.90
12811;DHT22;6470;47.654;7.896;2023-07-16T03:21:28;16.30;99.90
12811;DHT22;6470;47.654;7.896;2023-07-16T03:23:53;16.20;99.90
12811;DHT22;6470;47.654;7.896;2023-07-16T03:26:19;16.00;99.90
12811;DHT22;6470;47.654;7.896;2023-07-16T03:28:45;16.00;99.90
12811;DHT22;6470;47.654;7.896;2023-07-16T03:31:10;16.30;99.90
12811;DHT22;6470;47.654;7.896;2023-07-16T03:33:36;16.00;99.90
12811;DHT22;6470;47.654;7.896;2023-07-16T03:36:01;16.00;99.90
12811;DHT22;6470;47.654;7.896;2023-07-16T03:38:27;16.30;99.90
12811;DHT22;6470;47.654;7.896;2023-07-16T03:40:53;16.00;99.90
12811;DHT22;6470;47.654;7.896;2023-07-16T03:43:18;15.80;99.90
12811;DHT22;6470;47.654;7.896;2023-07-16T03:45:44;16.40;99.90
12811;DHT22;6470;47.654;7.896;2023-07-16T03:48:10;15.90;99.90
12811;DHT22;6470;47.654;7.896;2023-07-16T03:50:36;15.70;99.90
12811;DHT22;6470;47.654;7.896;2023-07-16T03:53:02;16.10;99.90
12811;DHT22;6470;47.654;7.896;2023-07-16T03:55:29;16.00;99.90
12811;DHT22;6470;47.654;7.896;2023-07-16T03:57:54;13.20;99.90
12811;DHT22;6470;47.654;7.896;2023-07-16T04:00:20;15.90;99.90
12811;DHT22;6470;47.654;7.896;2023-07-16T04:02:46;16.70;99.90
12811;DHT22;6470;47.654;7.896;2023-07-16T04:05:11;16.70;99.90
12811;DHT22;6470;47.654;7.896;2023-07-16T04:07:37;15.90;99.90
12811;DHT22;6470;47.654;7.896;2023-07-16T04:10:03;15.90;99.90
12811;DHT22;6470;47.654;7.896;2023-07-16T04:12:29;15.70;99.90
12811;DHT22;6470;47.654;7.896;2023-07-16T04:14:57;16.40;99.90
12811;DHT22;6470;47.654;7.896;2023-07-16T04:17:23;13.00;99.90
12811;DHT22;6470;47.654;7.896;2023-07-16T04:19:49;16.30;99.90
12811;DHT22;6470;47.654;7.896;2023-07-16T04:22:14;16.00;99.90
12811;DHT22;6470;47.654;7.896;2023-07-16T04:24:40;13.10;99.90
12811;DHT22;6470;47.654;7.896;2023-07-16T04:27:06;12.80;99.90
12811;DHT22;6470;47.654;7.896;2023-07-16T04:29:31;15.80;99.90
12811;DHT22;6470;47.654;7.896;2023-07-16T04:34:23;15.90;99.90
12811;DHT22;6470;47.654;7.896;2023-07-16T04:36:49;16.60;99.90
12811;DHT22;6470;47.654;7.896;2023-07-16T04:39:14;16.50;99.90
12811;DHT22;6470;47.654;7.896;2023-07-16T04:41:40;15.90;99.90
12811;DHT22;6470;47.654;7.896;2023-07-16T04:44:06;16.00;99.90
12811;DHT22;6470;47.654;7.896;2023-07-16T04:46:31;15.80;99.90
12811;DHT22;6470;47.654;7.896;2023-07-16T04:48:57;15.90;99.90
12811;DHT22;6470;47.654;7.896;2023-07-16T04:51:23;16.40;99.90
12811;DHT22;6470;47.654;7.896;2023-07-16T04:53:49;15.70;99.90
12811;DHT22;6470;47.654;7.896;2023-07-16T04:56:15;16.30;99.90
12811;DHT22;6470;47.654;7.896;2023-07-16T04:58:42;15.90;99.90
12811;DHT22;6470;47.654;7.896;2023-07-16T05:01:08;15.90;99.90
12811;DHT22;6470;47.654;7.896;2023-07-16T05:03:35;16.40;99.90
12811;DHT22;6470;47.654;7.896;2023-07-16T05:06:01;15.80;99.90
12811;DHT22;6470;47.654;7.896;2023-07-16T05:08:26;15.60;99.90
12811;DHT22;6470;47.654;7.896;2023-07-16T05:10:52;15.80;99.90
12811;DHT22;6470;47.654;7.896;2023-07-16T05:13:18;15.50;99.90
12811;DHT22;6470;47.654;7.896;2023-07-16T05:15:44;15.90;99.90
12811;DHT22;6470;47.654;7.896;2023-07-16T05:18:09;15.40;99.90
12811;DHT22;6470;47.654;7.896;2023-07-16T05:20:35;16.20;99.90
12811;DHT22;6470;47.654;7.896;2023-07-16T05:23:01;16.20;99.90
12811;DHT22;6470;47.654;7.896;2023-07-16T05:25:27;16.00;99.90
12811;DHT22;6470;47.654;7.896;2023-07-16T05:27:52;15.80;99.90
12811;DHT22;6470;47.654;7.896;2023-07-16T05:30:18;16.40;99.90
12811;DHT22;6470;47.654;7.896;2023-07-16T05:32:44;15.80;99.90
12811;DHT22;6470;47.654;7.896;2023-07-16T05:35:09;16.60;99.90
12811;DHT22;6470;47.654;7.896;2023-07-16T05:37:35;16.30;99.90
12811;DHT22;6470;47.654;7.896;2023-07-16T05:42:28;15.60;99.90
12811;DHT22;6470;47.654;7.896;2023-07-16T05:44:54;16.10;99.90
12811;DHT22;6470;47.654;7.896;2023-07-16T05:47:20;16.20;99.90
12811;DHT22;6470;47.654;7.896;2023-07-16T05:49:45;16.20;99.90
12811;DHT22;6470;47.654;7.896;2023-07-16T05:52:11;15.90;99.90
12811;DHT22;6470;47.654;7.896;2023-07-16T05:54:37;16.40;99.90
12811;DHT22;6470;47.654;7.896;2023-07-16T05:57:03;16.20;99.90
12811;DHT22;6470;47.654;7.896;2023-07-16T05:59:29;16.90;99.90
12811;DHT22;6470;47.654;7.896;2023-07-16T06:01:54;17.10;99.90
12811;DHT22;6470;47.654;7.896;2023-07-16T06:04:23;16.80;99.90
12811;DHT22;6470;47.654;7.896;2023-07-16T06:06:48;16.50;99.90
12811;DHT22;6470;47.654;7.896;2023-07-16T06:09:14;16.50;99.90
12811;DHT22;6470;47.654;7.896;2023-07-16T06:11:40;16.50;99.90
12811;DHT22;6470;47.654;7.896;2023-07-16T06:14:06;16.20;99.90
12811;DHT22;6470;47.654;7.896;2023-07-16T06:16:31;17.40;99.90
12811;DHT22;6470;47.654;7.896;2023-07-16T06:18:57;17.00;99.90
12811;DHT22;6470;47.654;7.896;2023-07-16T06:21:22;17.30;99.90
12811;DHT22;6470;47.654;7.896;2023-07-16T06:23:48;17.10;99.90
12811;DHT22;6470;47.654;7.896;2023-07-16T06:26:14;17.70;99.90
12811;DHT22;6470;47.654;7.896;2023-07-16T06:28:40;17.00;99.90
12811;DHT22;6470;47.654;7.896;2023-07-16T06:31:05;18.30;99.90
12811;DHT22;6470;47.654;7.896;2023-07-16T06:33:31;17.20;99.90
12811;DHT22;6470;47.654;7.896;2023-07-16T06:35:56;17.20;99.90
12811;DHT22;6470;47.654;7.896;2023-07-16T06:38:22;16.80;99.90
12811;DHT22;6470;47.654;7.896;2023-07-16T06:40:49;18.10;99.90
12811;DHT22;6470;47.654;7.896;2023-07-16T06:43:16;17.60;99.90
12811;DHT22;6470;47.654;7.896;2023-07-16T06:45:42;18.00;99.90
12811;DHT22;6470;47.654;7.896;2023-07-16T06:48:08;18.40;99.90
12811;DHT22;6470;47.654;7.896;2023-07-16T06:50:34;18.10;99.90
12811;DHT22;6470;47.654;7.896;2023-07-16T06:52:59;18.50;99.90
12811;DHT22;6470;47.654;7.896;2023-07-16T06:57:51;19.30;99.90
12811;DHT22;6470;47.654;7.896;2023-07-16T07:00:17;16.20;99.90
12811;DHT22;6470;47.654;7.896;2023-07-16T07:02:43;19.30;99.90
12811;DHT22;6470;47.654;7.896;2023-07-16T07:05:09;20.30;99.90
12811;DHT22;6470;47.654;7.896;2023-07-16T07:07:34;16.90;99.90
12811;DHT22;6470;47.654;7.896;2023-07-16T07:10:00;19.60;99.90
12811;DHT22;6470;47.654;7.896;2023-07-16T07:12:26;20.00;99.90
12811;DHT22;6470;47.654;7.896;2023-07-16T07:14:52;16.70;99.90
12811;DHT22;6470;47.654;7.896;2023-07-16T07:17:17;16.50;99.90
12811;DHT22;6470;47.654;7.896;2023-07-16T07:19:43;19.20;99.90
12811;DHT22;6470;47.654;7.896;2023-07-16T07:22:09;18.90;99.90
12811;DHT22;6470;47.654;7.896;2023-07-16T07:24:35;20.10;99.90
12811;DHT22;6470;47.654;7.896;2023-07-16T07:27:01;19.60;99.90
12811;DHT22;6470;47.654;7.896;2023-07-16T07:29:27;19.90;99.90
12811;DHT22;6470;47.654;7.896;2023-07-16T07:31:53;19.00;99.90
12811;DHT22;6470;47.654;7.896;2023-07-16T07:34:19;19.80;99.90
12811;DHT22;6470;47.654;7.896;2023-07-16T07:36:45;19.10;99.90
12811;DHT22;6470;47.654;7.896;2023-07-16T07:39:10;19.30;99.90
12811;DHT22;6470;47.654;7.896;2023-07-16T07:41:36;19.20;99.90
12811;DHT22;6470;47.654;7.896;2023-07-16T07:44:02;19.80;99.90
12811;DHT22;6470;47.654;7.896;2023-07-16T07:46:27;21.50;99.90
12811;DHT22;6470;47.654;7.896;2023-07-16T07:48:53;20.70;99.90
12811;DHT22;6470;47.654;7.896;2023-07-16T07:51:20;20.30;99.90
12811;DHT22;6470;47.654;7.896;2023-07-16T07:53:46;21.10;99.90
12811;DHT22;6470;47.654;7.896;2023-07-16T07:56:12;20.90;99.90
12811;DHT22;6470;47.654;7.896;2023-07-16T07:58:38;20.30;99.90
12811;DHT22;6470;47.654;7.896;2023-07-16T08:01:08;20.30;99.90
12811;DHT22;6470;47.654;7.896;2023-07-16T08:03:34;17.30;99.90
12811;DHT22;6470;47.654;7.896;2023-07-16T08:06:01;19.60;99.90
12811;DHT22;6470;47.654;7.896;2023-07-16T08:08:27;20.00;99.90
12811;DHT22;6470;47.654;7.896;2023-07-16T08:10:54;20.20;99.90
12811;DHT22;6470;47.654;7.896;2023-07-16T08:13:20;19.90;99.90
12811;DHT22;6470;47.654;7.896;2023-07-16T08:15:46;20.40;99.90
12811;DHT22;6470;47.654;7.896;2023-07-16T08:18:13;19.60;99.90
12811;DHT22;6470;47.654;7.896;2023-07-16T08:20:39;19.70;99.90
12811;DHT22;6470;47.654;7.896;2023-07-16T08:23:06;19.20;99.90
12811;DHT22;6470;47.654;7.896;2023-07-16T08:27:58;20.70;99.90
12811;DHT22;6470;47.654;7.896;2023-07-16T08:30:24;20.50;99.90
12811;DHT22;6470;47.654;7.896;2023-07-16T08:32:49;21.90;99.90
12811;DHT22;6470;47.654;7.896;2023-07-16T08:35:16;21.20;99.90
12811;DHT22;6470;47.654;7.896;2023-07-16T08:37:45;21.10;99.90
12811;DHT22;6470;47.654;7.896;2023-07-16T08:40:12;21.30;99.90
12811;DHT22;6470;47.654;7.896;2023-07-16T08:42:39;21.60;99.90
12811;DHT22;6470;47.654;7.896;2023-07-16T08:45:10;20.60;99.90
12811;DHT22;6470;47.654;7.896;2023-07-16T08:47:36;20.20;99.90
12811;DHT22;6470;47.654;7.896;2023-07-16T08:50:02;20.70;99.90
12811;DHT22;6470;47.654;7.896;2023-07-16T08:52:28;17.50;99.90
12811;DHT22;6470;47.654;7.896;2023-07-16T08:54:54;21.30;99.90
12811;DHT22;6470;47.654;7.896;2023-07-16T08:57:21;20.60;99.90
12811;DHT22;6470;47.654;7.896;2023-07-16T08:59:51;20.10;99.90
12811;DHT22;6470;47.654;7.896;2023-07-16T09:02:20;21.00;99.90
12811;DHT22;6470;47.654;7.896;2023-07-16T09:04:49;20.50;99.90
12811;DHT22;6470;47.654;7.896;2023-07-16T09:07:16;21.40;99.90
12811;DHT22;6470;47.654;7.896;2023-07-16T09:09:42;18.30;99.90
12811;DHT22;6470;47.654;7.896;2023-07-16T09:12:14;20.80;99.90
12811;DHT22;6470;47.654;7.896;2023-07-16T09:14:42;21.30;99.90
12811;DHT22;6470;47.654;7.896;2023-07-16T09:17:09;21.10;99.90
12811;DHT22;6470;47.654;7.896;2023-07-16T09:19:36;22.20;99.90
12811;DHT22;6470;47.654;7.896;2023-07-16T09:22:01;20.90;99.90
12811;DHT22;6470;47.654;7.896;2023-07-16T09:24:29;21.40;99.90
12811;DHT22;6470;47.654;7.896;2023-07-16T09:26:55;21.10;99.90
12811;DHT22;6470;47.654;7.896;2023-07-16T09:29:21;21.10;99.90
12811;DHT22;6470;47.654;7.896;2023-07-16T09:36:49;22.40;99.90
12811;DHT22;6470;47.654;7.896;2023-07-16T09:39:18;22.00;99.90
12811;DHT22;6470;47.654;7.896;2023-07-16T09:41:48;22.30;99.90
12811;DHT22;6470;47.654;7.896;2023-07-16T09:44:16;21.80;99.90
12811;DHT22;6470;47.654;7.896;2023-07-16T09:46:43;22.50;99.90
12811;DHT22;6470;47.654;7.896;2023-07-16T09:49:09;22.10;99.90
12811;DHT22;6470;47.654;7.896;2023-07-16T09:51:37;22.10;99.90
12811;DHT22;6470;47.654;7.896;2023-07-16T09:54:04;22.70;99.90
12811;DHT22;6470;47.654;7.896;2023-07-16T09:56:37;22.10;99.90
12811;DHT22;6470;47.654;7.896;2023-07-16T09:59:16;22.10;99.90
12811;DHT22;6470;47.654;7.896;2023-07-16T10:01:42;22.70;99.90
12811;DHT22;6470;47.654;7.896;2023-07-16T10:07:00;22.40;99.90
12811;DHT22;6470;47.654;7.896;2023-07-16T10:12:27;22.40;99.90
12811;DHT22;6470;47.654;7.896;2023-07-16T10:14:55;22.90;99.90
12811;DHT22;6470;47.654;7.896;2023-07-16T10:17:26;22.40;99.90
12811;DHT22;6470;47.654;7.896;2023-07-16T10:19:59;23.40;99.90
12811;DHT22;6470;47.654;7.896;2023-07-16T10:22:42;23.00;99.90
12811;DHT22;6470;47.654;7.896;2023-07-16T10:27:37;22.60;99.90
12811;DHT22;6470;47.654;7.896;2023-07-16T10:30:04;23.50;99.90
12811;DHT22;6470;47.654;7.896;2023-07-16T10:32:31;23.30;99.90
12811;DHT22;6470;47.654;7.896;2023-07-16T10:34:58;23.90;99.90
12811;DHT22;6470;47.654;7.896;2023-07-16T10:37:24;23.80;99.90
12811;DHT22;6470;47.654;7.896;2023-07-16T10:39:52;22.90;99.90
12811;DHT22;6470;47.654;7.896;2023-07-16T10:42:19;23.60;99.90
12811;DHT22;6470;47.654;7.896;2023-07-16T10:44:49;22.90;99.90
12811;DHT22;6470;47.654;7.896;2023-07-16T10:47:36;23.70;99.90
12811;DHT22;6470;47.654;7.896;2023-07-16T10:50:07;23.40;99.90
12811;DHT22;6470;47.654;7.896;2023-07-16T10:52:34;22.30;99.90
12811;DHT22;6470;47.654;7.896;2023-07-16T10:54:59;23.30;99.90
12811;DHT22;6470;47.654;7.896;2023-07-16T10:57:26;22.70;99.90
12811;DHT22;6470;47.654;7.896;2023-07-16T10:59:53;23.20;99.90
12811;DHT22;6470;47.654;7.896;2023-07-16T11:02:21;23.60;99.90
12811;DHT22;6470;47.654;7.896;2023-07-16T11:04:48;23.50;99.90
12811;DHT22;6470;47.654;7.896;2023-07-16T11:07:14;23.50;99.90
12811;DHT22;6470;47.654;7.896;2023-07-16T11:09:51;22.90;99.90
12811;DHT22;6470;47.654;7.896;2023-07-16T11:12:20;23.20;99.90
12811;DHT22;6470;47.654;7.896;2023-07-16T11:14:48;24.10;99.90
12811;DHT22;6470;47.654;7.896;2023-07-16T11:17:15;24.30;99.90
12811;DHT22;6470;47.654;7.896;2023-07-16T11:19:44;21.70;99.90
12811;DHT22;6470;47.654;7.896;2023-07-16T11:22:10;22.30;99.90
12811;DHT22;6470;47.654;7.896;2023-07-16T11:24:56;25.80;99.90
12811;DHT22;6470;47.654;7.896;2023-07-16T11:27:24;26.60;99.90
12811;DHT22;6470;47.654;7.896;2023-07-16T11:29:53;26.60;99.90
12811;DHT22;6470;47.654;7.896;2023-07-16T11:35:00;25.70;99.90
12811;DHT22;6470;47.654;7.896;2023-07-16T11:37:27;24.60;99.90
12811;DHT22;6470;47.654;7.896;2023-07-16T11:39:57;25.40;99.90
12811;DHT22;6470;47.654;7.896;2023-07-16T11:42:43;25.00;99.90
12811;DHT22;6470;47.654;7.896;2023-07-16T11:45:29;24.00;99.90
12811;DHT22;6470;47.654;7.896;2023-07-16T11:47:55;24.30;99.90
12811;DHT22;6470;47.654;7.896;2023-07-16T11:50:21;23.50;99.90
12811;DHT22;6470;47.654;7.896;2023-07-16T11:52:53;23.60;99.90
12811;DHT22;6470;47.654;7.896;2023-07-16T11:55:19;23.60;99.90
12811;DHT22;6470;47.654;7.896;2023-07-16T11:57:45;23.60;99.90
12811;DHT22;6470;47.654;7.896;2023-07-16T12:00:11;22.80;99.90
12811;DHT22;6470;47.654;7.896;2023-07-16T12:02:37;20.50;99.90
12811;DHT22;6470;47.654;7.896;2023-07-16T12:05:03;24.40;99.90
12811;DHT22;6470;47.654;7.896;2023-07-16T12:07:33;24.90;99.90
12811;DHT22;6470;47.654;7.896;2023-07-16T12:09:59;24.30;99.90
12811;DHT22;6470;47.654;7.896;2023-07-16T12:12:25;25.10;99.90
12811;DHT22;6470;47.654;7.896;2023-07-16T12:14:51;25.40;99.90
12811;DHT22;6470;47.654;7.896;2023-07-16T12:17:16;24.90;99.90
12811;DHT22;6470;47.654;7.896;2023-07-16T12:19:42;24.60;99.90
12811;DHT22;6470;47.654;7.896;2023-07-16T12:22:08;25.70;99.90
12811;DHT22;6470;47.654;7.896;2023-07-16T12:24:34;24.90;99.90
12811;DHT22;6470;47.654;7.896;2023-07-16T12:27:00;25.50;99.90
12811;DHT22;6470;47.654;7.896;2023-07-16T12:29:26;25.30;99.90
12811;DHT22;6470;47.654;7.896;2023-07-16T12:31:51;25.20;99.90
12811;DHT22;6470;47.654;7.896;2023-07-16T12:34:17;25.20;99.90
12811;DHT22;6470;47.654;7.896;2023-07-16T12:36:43;21.80;99.90
12811;DHT22;6470;47.654;7.896;2023-07-16T12:39:08;24.30;99.90
12811;DHT22;6470;47.654;7.896;2023-07-16T12:41:34;23.50;99.90
12811;DHT22;6470;47.654;7.896;2023-07-16T12:44:00;24.30;99.90
12811;DHT22;6470;47.654;7.896;2023-07-16T12:46:25;23.90;99.90
12811;DHT22;6470;47.654;7.896;2023-07-16T12:48:51;24.80;99.90
12811;DHT22;6470;47.654;7.896;2023-07-16T12:51:17;22.10;99.90
12811;DHT22;6470;47.654;7.896;2023-07-16T12:53:42;25.00;99.90
12811;DHT22;6470;47.654;7.896;2023-07-16T12:56:09;24.70;99.90
12811;DHT22;6470;47.654;7.896;2023-07-16T12:58:35;24.90;99.90
12811;DHT22;6470;47.654;7.896;2023-07-16T13:01:01;24.80;99.90
12811;DHT22;6470;47.654;7.896;2023-07-16T13:03:27;24.40;99.90
12811;DHT22;6470;47.654;7.896;2023-07-16T13:05:53;24.30;99.90
12811;DHT22;6470;47.654;7.896;2023-07-16T13:08:19;22.00;99.90
12811;DHT22;6470;47.654;7.896;2023-07-16T13:10:45;24.60;99.90
12811;DHT22;6470;47.654;7.896;2023-07-16T13:13:11;25.20;99.90
12811;DHT22;6470;47.654;7.896;2023-07-16T13:15:36;24.30;99.90
12811;DHT22;6470;47.654;7.896;2023-07-16T13:18:02;24.70;99.90
12811;DHT22;6470;47.654;7.896;2023-07-16T13:20:28;24.90;99.90
12811;DHT22;6470;47.654;7.896;2023-07-16T13:22:55;24.70;99.90
12811;DHT22;6470;47.654;7.896;2023-07-16T13:25:21;25.20;99.90
12811;DHT22;6470;47.654;7.896;2023-07-16T13:27:47;25.00;99.90
12811;DHT22;6470;47.654;7.896;2023-07-16T13:30:14;24.70;99.90
12811;DHT22;6470;47.654;7.896;2023-07-16T13:32:40;26.00;99.90
12811;DHT22;6470;47.654;7.896;2023-07-16T13:35:06;25.80;99.90
12811;DHT22;6470;47.654;7.896;2023-07-16T13:37:32;25.90;99.90
12811;DHT22;6470;47.654;7.896;2023-07-16T13:39:57;25.70;99.90
12811;DHT22;6470;47.654;7.896;2023-07-16T13:42:23;26.00;99.90
12811;DHT22;6470;47.654;7.896;2023-07-16T13:44:49;26.10;99.90
12811;DHT22;6470;47.654;7.896;2023-07-16T13:47:14;26.90;99.90
12811;DHT22;6470;47.654;7.896;2023-07-16T13:49:40;26.80;99.90
12811;DHT22;6470;47.654;7.896;2023-07-16T13:52:06;26.80;99.90
12811;DHT22;6470;47.654;7.896;2023-07-16T13:54:32;24.20;99.90
12811;DHT22;6470;47.654;7.896;2023-07-16T13:56:57;27.30;99.90
12811;DHT22;6470;47.654;7.896;2023-07-16T13:59:23;26.90;99.90
12811;DHT22;6470;47.654;7.896;2023-07-16T14:01:59;27.00;99.90
12811;DHT22;6470;47.654;7.896;2023-07-16T14:04:25;27.40;99.90
12811;DHT22;6470;47.654;7.896;2023-07-16T14:06:51;27.20;99.90
12811;DHT22;6470;47.654;7.896;2023-07-16T14:09:18;26.70;99.90
12811;DHT22;6470;47.654;7.896;2023-07-16T14:11:45;27.20;99.90
12811;DHT22;6470;47.654;7.896;2023-07-16T14:14:13;27.10;99.90
12811;DHT22;6470;47.654;7.896;2023-07-16T14:16:39;27.60;99.90
12811;DHT22;6470;47.654;7.896;2023-07-16T14:19:05;27.20;99.90
12811;DHT22;6470;47.654;7.896;2023-07-16T14:21:30;26.80;99.90
12811;DHT22;6470;47.654;7.896;2023-07-16T14:23:56;26.70;99.90
12811;DHT22;6470;47.654;7.896;2023-07-16T14:26:22;27.20;99.90
12811;DHT22;6470;47.654;7.896;2023-07-16T14:28:47;28.00;99.90
12811;DHT22;6470;47.654;7.896;2023-07-16T14:31:13;25.70;99.90
12811;DHT22;6470;47.654;7.896;2023-07-16T14:33:39;23.70;99.90
12811;DHT22;6470;47.654;7.896;2023-07-16T14:36:06;26.90;99.90
12811;DHT22;6470;47.654;7.896;2023-07-16T14:38:31;26.60;99.90
12811;DHT22;6470;47.654;7.896;2023-07-16T14:40:57;24.20;99.90
12811;DHT22;6470;47.654;7.896;2023-07-16T14:43:23;27.00;99.90
12811;DHT22;6470;47.654;7.896;2023-07-16T14:45:49;27.10;99.90
12811;DHT22;6470;47.654;7.896;2023-07-16T14:48:14;26.10;99.90
12811;DHT22;6470;47.654;7.896;2023-07-16T14:50:40;24.00;99.90
12811;DHT22;6470;47.654;7.896;2023-07-16T14:53:06;26.40;99.90
12811;DHT22;6470;47.654;7.896;2023-07-16T14:55:32;27.50;99.90
12811;DHT22;6470;47.654;7.896;2023-07-16T14:57:58;28.00;99.90
12811;DHT22;6470;47.654;7.896;2023-07-16T15:00:23;24.50;99.90
12811;DHT22;6470;47.654;7.896;2023-07-16T15:02:49;26.50;99.90
12811;DHT22;6470;47.654;7.896;2023-07-16T15:05:15;27.20;99.90
12811;DHT22;6470;47.654;7.896;2023-07-16T15:07:41;26.80;99.90
12811;DHT22;6470;47.654;7.896;2023-07-16T15:10:08;25.90;99.90
12811;DHT22;6470;47.654;7.896;2023-07-16T15:12:34;26.00;99.90
12811;DHT22;6470;47.654;7.896;2023-07-16T15:14:59;26.50;99.90
12811;DHT22;6470;47.654;7.896;2023-07-16T15:17:26;25.90;99.90
12811;DHT22;6470;47.654;7.896;2023-07-16T15:19:53;26.70;99.90
12811;DHT22;6470;47.654;7.896;2023-07-16T15:22:18;23.10;99.90
12811;DHT22;6470;47.654;7.896;2023-07-16T15:24:47;26.50;99.90
12811;DHT22;6470;47.654;7.896;2023-07-16T15:27:13;25.40;99.90
12811;DHT22;6470;47.654;7.896;2023-07-16T15:29:38;25.30;99.90
12811;DHT22;6470;47.654;7.896;2023-07-16T15:32:05;26.10;99.90
12811;DHT22;6470;47.654;7.896;2023-07-16T15:34:31;26.00;99.90
12811;DHT22;6470;47.654;7.896;2023-07-16T15:36:57;26.00;99.90
12811;DHT22;6470;47.654;7.896;2023-07-16T15:39:23;23.00;99.90
12811;DHT22;6470;47.654;7.896;2023-07-16T15:41:48;27.20;99.90
12811;DHT22;6470;47.654;7.896;2023-07-16T15:44:15;23.60;99.90
12811;DHT22;6470;47.654;7.896;2023-07-16T15:46:40;26.50;99.90
12811;DHT22;6470;47.654;7.896;2023-07-16T15:49:06;27.20;99.90
12811;DHT22;6470;47.654;7.896;2023-07-16T15:51:32;26.60;99.90
12811;DHT22;6470;47.654;7.896;2023-07-16T15:54:01;26.40;99.90
12811;DHT22;6470;47.654;7.896;2023-07-16T15:56:27;26.30;99.90
12811;DHT22;6470;47.654;7.896;2023-07-16T15:58:53;25.80;99.90
12811;DHT22;6470;47.654;7.896;2023-07-16T16:01:18;25.60;99.90
12811;DHT22;6470;47.654;7.896;2023-07-16T16:03:44;26.10;99.90
12811;DHT22;6470;47.654;7.896;2023-07-16T16:06:11;25.30;99.90
12811;DHT22;6470;47.654;7.896;2023-07-16T16:08:36;24.60;99.90
12811;DHT22;6470;47.654;7.896;2023-07-16T16:11:03;25.40;99.90
12811;DHT22;6470;47.654;7.896;2023-07-16T16:13:29;25.60;99.90
12811;DHT22;6470;47.654;7.896;2023-07-16T16:15:55;25.00;99.90
12811;DHT22;6470;47.654;7.896;2023-07-16T16:18:22;26.40;99.90
12811;DHT22;6470;47.654;7.896;2023-07-16T16:20:48;26.00;99.90
12811;DHT22;6470;47.654;7.896;2023-07-16T16:23:14;26.00;99.90
12811;DHT22;6470;47.654;7.896;2023-07-16T16:25:41;26.00;99.90
12811;DHT22;6470;47.654;7.896;2023-07-16T16:28:08;26.60;99.90
12811;DHT22;6470;47.654;7.896;2023-07-16T16:30:36;26.10;99.90
12811;DHT22;6470;47.654;7.896;2023-07-16T16:33:02;26.00;99.90
12811;DHT22;6470;47.654;7.896;2023-07-16T16:35:33;26.00;99.90
12811;DHT22;6470;47.654;7.896;2023-07-16T16:37:59;26.20;99.90
12811;DHT22;6470;47.654;7.896;2023-07-16T16:40:24;25.60;99.90